Flight Track Log - Related Links

Times and Time Zones

All times are in EDT time to prevent confusion due to time zone crossing. See the ASA125 flight status page for this flight to view local times or setup timezone preferences in your user account.


Time Position Orientation Groundspeed Altitude Reporting Facility
EDT Latitude Longitude Course Direction KTS MPH feet Rate Location/Type
Thu 02:11:12 AM 47.4258 -122.3089 180° South 171 197 1,500  Level Seattle Center
Thu 02:12:24 AM 47.3617 -122.3094 180° South 204 235 3,600 1,955 Climbing Seattle Center
Thu 02:13:24 AM 47.3117 -122.3672 218° Southwest 265 305 5,800 1,835 Climbing Seattle Center
Thu 02:14:25 AM 47.3197 -122.4767 276° West 281 323 7,300 2,132 Climbing Seattle Center
Thu 02:15:25 AM 47.3717 -122.5631 312° West 282 325 10,100 2,300 Climbing Seattle Center
Thu 02:16:25 AM 47.4378 -122.6472 319° Northwest 313 360 11,900 1,983 Climbing Seattle Center
Thu 02:17:26 AM 47.5175 -122.7506 319° Northwest 350 403 14,100 2,132 Climbing Seattle Center
Thu 02:18:26 AM 47.5803 -122.8328 319° Northwest 373 429 16,200 2,678 Climbing Seattle Center
Thu 02:19:27 AM 47.6539 -122.9389 316° Northwest 371 427 19,500 2,777 Climbing Seattle Center
Thu 02:20:27 AM 47.7183 -123.0917 302° West 368 423 21,800 1,900 Climbing Seattle Center
Thu 02:21:27 AM 47.7750 -123.2267 302° West 380 437 23,300 1,587 Climbing Seattle Center
Thu 02:22:28 AM 47.8339 -123.3667 302° West 397 457 25,000 1,140 Climbing Seattle Center
Thu 02:23:28 AM 47.9050 -123.5003 308° West 415 478 25,600 694 Climbing Seattle Center
Thu 02:24:29 AM 48.0044 -123.5986 327° Northwest 430 495 26,400 843 Climbing Seattle Center
Thu 02:25:29 AM 48.1111 -123.7025 327° Northwest 450 518 27,300 900 Climbing Seattle Center
Thu 02:26:29 AM 48.2200 -123.8094 327° Northwest 468 539 28,200 992 Climbing Seattle Center
Thu 02:27:30 AM 48.3314 -123.9169 327° Northwest 479 551 29,300 1,226 Climbing Seattle Center
Thu 02:28:02 AM 48.3833 -123.9833 320° Northwest 480 552 30,100 1,435 Climbing Vancouver Center
Thu 02:29:02 AM 48.4833 -124.0833 326° Northwest 480 552 31,500 1,400 Climbing Vancouver Center
Thu 02:30:02 AM 48.6000 -124.2000 327° Northwest 470 541 32,900 1,500 Climbing Vancouver Center
Thu 02:31:02 AM 48.7000 -124.3000 327° Northwest 460 529 34,500 1,250 Climbing Vancouver Center
Thu 02:32:02 AM 48.8000 -124.4000 327° Northwest 450 518 35,400 700 Climbing Vancouver Center
Thu 02:33:02 AM 48.9167 -124.5167 327° Northwest 450 518 35,900 300 Climbing Vancouver Center
Thu 02:34:02 AM 49.0167 -124.6167 327° Northwest 450 518 36,000 50 Climbing Vancouver Center
Thu 02:35:02 AM 49.1167 -124.7500 319° Northwest 450 518 36,000  Level Vancouver Center
Thu 02:36:02 AM 49.2167 -124.8500 327° Northwest 450 518 36,000  Level Vancouver Center
Thu 02:37:02 AM 49.3333 -124.9500 331° Northwest 450 518 36,000  Level Vancouver Center
Thu 02:38:02 AM 49.4333 -125.0500 327° Northwest 450 518 36,000  Level Vancouver Center
Thu 02:39:02 AM 49.5333 -125.1667 323° Northwest 440 506 36,000  Level Vancouver Center
Thu 02:40:02 AM 49.6333 -125.2667 327° Northwest 440 506 36,000  Level Vancouver Center
Thu 02:41:02 AM 49.7333 -125.3667 327° Northwest 440 506 36,000  Level Vancouver Center
Thu 02:42:02 AM 49.8500 -125.4833 327° Northwest 440 506 36,000  Level Vancouver Center
Thu 02:43:02 AM 49.9500 -125.5833 327° Northwest 440 506 36,000  Level Vancouver Center
Thu 02:44:02 AM 50.0333 -125.7000 318° Northwest 440 506 36,000  Level Vancouver Center
Thu 02:45:02 AM 50.1333 -125.8000 327° Northwest 440 506 36,000  Level Vancouver Center
Thu 02:46:02 AM 50.2333 -125.9167 323° Northwest 440 506 36,000  Level Vancouver Center
Thu 02:47:02 AM 50.3333 -126.0167 327° Northwest 440 506 36,000  Level Vancouver Center
Thu 02:48:02 AM 50.4500 -126.1333 328° Northwest 440 506 36,000  Level Vancouver Center
Thu 02:49:02 AM 50.5500 -126.2500 323° Northwest 450 518 36,000  Level Vancouver Center
Thu 02:50:02 AM 50.6500 -126.3500 328° Northwest 450 518 36,000  Level Vancouver Center
Thu 02:51:02 AM 50.7500 -126.4667 324° Northwest 450 518 36,000  Level Vancouver Center
Thu 02:52:02 AM 50.8500 -126.6000 320° Northwest 460 529 36,000  Level Vancouver Center
Thu 02:53:02 AM 50.9500 -126.7167 324° Northwest 460 529 36,000  Level Vancouver Center
Thu 02:54:02 AM 51.0667 -126.8333 328° Northwest 460 529 36,000  Level Vancouver Center
Thu 02:55:02 AM 51.1667 -126.9333 328° Northwest 450 518 36,000  Level Vancouver Center
Thu 02:56:02 AM 51.2667 -127.0500 324° Northwest 450 518 36,000  Level Vancouver Center
Thu 02:57:02 AM 51.3667 -127.1667 324° Northwest 460 529 36,000  Level Vancouver Center
Thu 02:58:02 AM 51.4667 -127.3167 317° Northwest 460 529 36,000  Level Vancouver Center
Thu 02:59:02 AM 51.5667 -127.4333 324° Northwest 460 529 36,000  Level Vancouver Center
Thu 03:00:02 AM 51.6667 -127.5333 328° Northwest 460 529 36,000  Level Vancouver Center
Thu 03:01:02 AM 51.7833 -127.6500 328° Northwest 450 518 36,000  Level Vancouver Center
Thu 03:02:02 AM 51.8833 -127.7667 324° Northwest 450 518 36,000  Level Vancouver Center
Thu 03:03:02 AM 51.9833 -127.9000 321° Northwest 450 518 36,000  Level Vancouver Center
Thu 03:04:02 AM 52.0833 -128.0167 324° Northwest 450 518 36,000  Level Vancouver Center
Thu 03:05:02 AM 52.1833 -128.1500 321° Northwest 450 518 36,000  Level Vancouver Center
Thu 03:06:02 AM 52.3000 -128.2500 332° Northwest 450 518 36,000  Level Vancouver Center
Thu 03:07:02 AM 52.3833 -128.3667 320° Northwest 440 506 36,000  Level Vancouver Center
Thu 03:08:02 AM 52.4833 -128.4667 329° Northwest 440 506 36,000  Level Vancouver Center
Thu 03:09:02 AM 52.5833 -128.5833 325° Northwest 440 506 36,000  Level Vancouver Center
Thu 03:10:02 AM 52.7000 -128.7000 329° Northwest 440 506 36,000  Level Vancouver Center
Thu 03:11:02 AM 52.8000 -128.8333 321° Northwest 450 518 36,000  Level Vancouver Center
Thu 03:12:02 AM 52.9000 -128.9167 333° Northwest 450 518 36,000  Level Vancouver Center
Thu 03:13:02 AM 53.0167 -129.0500 326° Northwest 450 518 36,000  Level Vancouver Center
Thu 03:14:02 AM 53.1167 -129.1667 325° Northwest 450 518 36,000  Level Vancouver Center
Thu 03:15:02 AM 53.2000 -129.2667 324° Northwest 440 506 36,000  Level Vancouver Center
Thu 03:16:02 AM 53.3167 -129.3833 329° Northwest 450 518 36,000  Level Vancouver Center
Thu 03:17:02 AM 53.4167 -129.5167 322° Northwest 450 518 36,000  Level Vancouver Center
Thu 03:18:02 AM 53.5167 -129.6333 325° Northwest 450 518 36,000  Level Vancouver Center
Thu 03:19:02 AM 53.6167 -129.7333 329° Northwest 450 518 36,000  Level Vancouver Center
Thu 03:20:02 AM 53.7333 -129.8667 326° Northwest 450 518 36,000  Level Vancouver Center
Thu 03:21:02 AM 53.8167 -130.0000 317° Northwest 450 518 36,000  Level Vancouver Center
Thu 03:22:02 AM 53.9333 -130.1167 330° Northwest 450 518 36,000  Level Vancouver Center
Thu 03:23:02 AM 54.0333 -130.2167 330° Northwest 450 518 36,000  Level Vancouver Center
Thu 03:24:02 AM 54.1333 -130.3500 322° Northwest 450 518 36,000  Level Vancouver Center
Thu 03:25:02 AM 54.2333 -130.4833 322° Northwest 450 518 36,000  Level Vancouver Center
Thu 03:26:02 AM 54.3333 -130.5833 330° Northwest 450 518 36,000  Level Vancouver Center
Thu 03:27:02 AM 54.4333 -130.7167 322° Northwest 450 518 36,000  Level Vancouver Center
Thu 03:28:02 AM 54.5333 -130.8500 322° Northwest 460 529 36,000  Level Vancouver Center
Thu 03:29:02 AM 54.6333 -130.9833 322° Northwest 450 518 36,000  Level Vancouver Center
Thu 03:29:43 AM 54.7167 -131.0167 347° North 460 529 36,000  Level Anchorage Center
Thu 03:30:43 AM 54.8167 -131.1500 322° Northwest 460 529 36,000  Level Anchorage Center
Thu 03:31:02 AM 54.8667 -131.2167 323° Northwest 460 529 36,000  Level Vancouver Center
Thu 03:31:43 AM 54.9167 -131.2667 330° Northwest 460 529 36,000  Level Anchorage Center
Thu 03:32:43 AM 55.0333 -131.4000 327° Northwest 460 529 36,000  Level Anchorage Center
Thu 03:33:44 AM 55.1333 -131.5333 323° Northwest 460 529 36,000  Level Anchorage Center
Thu 03:34:44 AM 55.2333 -131.6667 323° Northwest 460 529 36,000  Level Anchorage Center
Thu 03:35:44 AM 55.3333 -131.8000 323° Northwest 460 529 36,000  Level Anchorage Center
Thu 03:36:44 AM 55.4500 -131.9333 327° Northwest 460 529 36,000  Level Anchorage Center
Thu 03:37:44 AM 55.5333 -132.0500 322° Northwest 450 518 36,000  Level Anchorage Center
Thu 03:38:44 AM 55.6500 -132.2000 324° Northwest 460 529 36,000  Level Anchorage Center
Thu 03:39:44 AM 55.7500 -132.3167 327° Northwest 460 529 36,000  Level Anchorage Center
Thu 03:40:45 AM 55.8667 -132.4333 331° Northwest 460 529 36,000  Level Anchorage Center
Thu 03:41:44 AM 55.9667 -132.5500 327° Northwest 460 529 36,000  Level Anchorage Center
Thu 03:42:44 AM 56.0833 -132.6833 327° Northwest 460 529 36,000  Level Anchorage Center
Thu 03:43:45 AM 56.1833 -132.8000 327° Northwest 460 529 36,000  Level Anchorage Center
Thu 03:44:45 AM 56.3000 -132.9333 328° Northwest 460 529 36,000  Level Anchorage Center
Thu 03:45:45 AM 56.4000 -133.0500 327° Northwest 460 529 36,000  Level Anchorage Center
Thu 03:46:45 AM 56.5000 -133.1833 324° Northwest 460 529 36,000  Level Anchorage Center
Thu 03:47:45 AM 56.6167 -133.3167 328° Northwest 450 518 36,000  Level Anchorage Center
Thu 03:48:45 AM 56.7167 -133.4333 327° Northwest 470 541 36,000  Level Anchorage Center
Thu 03:49:45 AM 56.8333 -133.5667 328° Northwest 460 529 36,000  Level Anchorage Center
Thu 03:50:46 AM 56.9333 -133.6833 328° Northwest 460 529 36,000  Level Anchorage Center
Thu 03:51:46 AM 57.0333 -133.8167 324° Northwest 460 529 36,000  Level Anchorage Center
Thu 03:52:46 AM 57.1500 -133.9500 328° Northwest 460 529 36,000  Level Anchorage Center
Thu 03:53:46 AM 57.2500 -134.0833 324° Northwest 460 529 36,000  Level Anchorage Center
Thu 03:54:46 AM 57.3500 -134.2167 324° Northwest 460 529 36,000  Level Anchorage Center
Thu 03:55:46 AM 57.4667 -134.3333 332° Northwest 450 518 36,000  Level Anchorage Center
Thu 03:56:46 AM 57.5667 -134.4667 324° Northwest 450 518 36,000  Level Anchorage Center
Thu 03:57:46 AM 57.6667 -134.6000 325° Northwest 450 518 36,000  Level Anchorage Center
Thu 03:58:47 AM 57.7667 -134.7333 325° Northwest 450 518 36,000  Level Anchorage Center
Thu 03:59:47 AM 57.8833 -134.8667 329° Northwest 450 518 36,000  Level Anchorage Center
Thu 04:00:47 AM 57.9833 -135.0000 325° Northwest 450 518 36,000  Level Anchorage Center
Thu 04:01:47 AM 58.0833 -135.1333 325° Northwest 450 518 36,000  Level Anchorage Center
Thu 04:02:47 AM 58.2000 -135.2667 329° Northwest 450 518 36,000  Level Anchorage Center
Thu 04:03:47 AM 58.3000 -135.3833 329° Northwest 450 518 36,000  Level Anchorage Center
Thu 04:04:47 AM 58.4167 -135.5000 332° Northwest 450 518 36,000  Level Anchorage Center
Thu 04:05:47 AM 58.5167 -135.6333 325° Northwest 450 518 36,000  Level Anchorage Center
Thu 04:06:47 AM 58.6167 -135.7333 333° Northwest 440 506 36,000  Level Anchorage Center
Thu 04:07:47 AM 58.7333 -135.8667 329° Northwest 440 506 36,000  Level Anchorage Center
Thu 04:08:48 AM 58.8333 -135.9833 329° Northwest 450 518 36,000  Level Anchorage Center
Thu 04:09:48 AM 58.9333 -136.0833 333° Northwest 450 518 36,000  Level Anchorage Center
Thu 04:10:48 AM 59.0500 -136.2000 333° Northwest 450 518 36,000  Level Anchorage Center
Thu 04:11:48 AM 59.1500 -136.3167 329° Northwest 450 518 36,000  Level Anchorage Center
Thu 04:12:48 AM 59.2667 -136.4500 330° Northwest 440 506 36,000  Level Anchorage Center
Thu 04:13:48 AM 59.3667 -136.5667 329° Northwest 440 506 36,000  Level Anchorage Center
Thu 04:14:48 AM 59.4833 -136.6833 333° Northwest 440 506 36,000  Level Anchorage Center
Thu 04:15:48 AM 59.5833 -136.8167 326° Northwest 440 506 36,000  Level Anchorage Center
Thu 04:16:49 AM 59.6833 -136.9333 330° Northwest 440 506 36,000  Level Anchorage Center
Thu 04:17:49 AM 59.8167 -137.0833 331° Northwest 440 506 36,000  Level Anchorage Center
Thu 04:18:49 AM 59.9167 -137.2000 330° Northwest 430 495 36,000  Level Anchorage Center
Thu 04:19:49 AM 60.0167 -137.3333 326° Northwest 440 506 36,000  Level Anchorage Center
Thu 04:20:49 AM 60.1167 -137.4500 330° Northwest 440 506 36,000  Level Anchorage Center
Thu 04:21:49 AM 60.2333 -137.5833 330° Northwest 440 506 36,000  Level Anchorage Center
Thu 04:22:49 AM 60.3333 -137.7167 327° Northwest 440 506 36,000  Level Anchorage Center
Thu 04:23:50 AM 60.4333 -137.8333 330° Northwest 440 506 36,000  Level Anchorage Center
Thu 04:24:49 AM 60.5500 -137.9667 331° Northwest 440 506 36,000  Level Anchorage Center
Thu 04:25:49 AM 60.6500 -138.1000 327° Northwest 450 518 36,000  Level Anchorage Center
Thu 04:26:49 AM 60.7500 -138.2333 327° Northwest 440 506 36,000  Level Anchorage Center
Thu 04:27:50 AM 60.8667 -138.3667 331° Northwest 440 506 36,000  Level Anchorage Center
Thu 04:28:50 AM 60.9667 -138.5000 327° Northwest 450 518 36,000  Level Anchorage Center
Thu 04:29:50 AM 61.0667 -138.6500 324° Northwest 450 518 36,000  Level Anchorage Center
Thu 04:30:50 AM 61.1833 -138.7833 331° Northwest 450 518 36,000  Level Anchorage Center
Thu 04:31:50 AM 61.2833 -138.9167 327° Northwest 440 506 36,000  Level Anchorage Center
Thu 04:32:50 AM 61.3833 -139.0667 324° Northwest 440 506 36,000  Level Anchorage Center
Thu 04:33:50 AM 61.4833 -139.2167 324° Northwest 440 506 36,000  Level Anchorage Center
Thu 04:34:51 AM 61.5667 -139.3833 316° Northwest 440 506 36,000  Level Anchorage Center
Thu 04:37:00 AM 61.6688 -139.5729 319° Northwest  Level FlightAware Approximate
Thu 04:37:41 AM 61.8333 -139.8500 319° Northwest 440 506 36,000  Level Anchorage Center
Thu 04:39:00 AM 61.9480 -140.0744 317° Northwest  Level FlightAware Approximate
Thu 04:46:00 AM 62.5648 -141.2620 322° Northwest  Level FlightAware Approximate
Thu 04:46:01 AM 62.6167 -141.3000 308° West 450 518 36,000  Level Anchorage Center
Thu 04:47:00 AM 62.6579 -141.4212 322° Northwest  Level FlightAware Approximate
Thu 04:47:02 AM 62.7167 -141.4667 323° Northwest 440 506 36,000  Level Anchorage Center
Thu 04:48:00 AM 62.7508 -141.5813 322° Northwest  Level FlightAware Approximate
Thu 04:48:02 AM 62.8167 -141.6333 323° Northwest 440 506 36,000  Level Anchorage Center
Thu 04:49:00 AM 62.8435 -141.7425 322° Northwest  Level FlightAware Approximate
Thu 04:49:02 AM 62.9000 -141.8167 315° West 440 506 36,000  Level Anchorage Center
Thu 04:50:00 AM 62.9355 -141.9060 308° West  Level FlightAware Approximate
Thu 04:50:02 AM 62.9833 -142.0167 313° West 430 495 36,000  Level Anchorage Center
Thu 04:51:00 AM 63.0080 -142.1120 308° West  Level FlightAware Approximate
Thu 04:51:02 AM 63.0500 -142.2333 304° West 430 495 36,000  Level Anchorage Center
Thu 04:52:02 AM 63.1333 -142.4500 310° West 440 506 36,000  Level Anchorage Center
Thu 04:53:02 AM 63.2000 -142.6667 304° West 440 506 36,000  Level Anchorage Center
Thu 04:54:02 AM 63.2667 -142.9000 302° West 440 506 36,000  Level Anchorage Center
Thu 04:55:03 AM 63.3500 -143.1167 311° West 450 518 36,000  Level Anchorage Center
Thu 04:56:03 AM 63.4167 -143.3333 305° West 440 506 36,000  Level Anchorage Center
Thu 04:57:03 AM 63.5000 -143.5500 311° West 450 518 36,000  Level Anchorage Center
Thu 04:58:03 AM 63.5667 -143.7833 303° West 450 518 36,000  Level Anchorage Center
Thu 04:59:03 AM 63.6333 -144.0000 305° West 440 506 36,000  Level Anchorage Center
Thu 05:00:03 AM 63.7000 -144.2333 303° West 440 506 36,000  Level Anchorage Center
Thu 05:01:03 AM 63.7833 -144.4667 309° West 440 506 36,000  Level Anchorage Center
Thu 05:02:03 AM 63.8500 -144.6833 305° West 440 506 36,000 -450 Level Anchorage Center
Thu 05:03:03 AM 63.9167 -144.9167 303° West 430 495 35,100 -942 Descending Anchorage Center
Thu 05:04:04 AM 63.9833 -145.1500 303° West 430 495 34,100 -1,736 Descending Anchorage Center
Thu 05:05:04 AM 64.0500 -145.3667 305° West 430 495 31,600 -2,650 Descending Anchorage Center
Thu 05:06:04 AM 64.1333 -145.6167 307° West 430 495 28,800 -2,550 Descending Anchorage Center
Thu 05:07:04 AM 64.1833 -145.8333 298° West 430 495 26,500 -2,400 Descending Anchorage Center
Thu 05:08:04 AM 64.2500 -146.0667 303° West 420 483 24,000 -2,500 Descending Anchorage Center
Thu 05:10:00 AM 64.3829 -146.4963 303° West  Level FlightAware Approximate

Login

Don't have an account? Register now (free) for customized features, flight alerts, and more!